Share

Vidalia, GA

Vidalia Municipal (KVDI) Elev 276 ft | 32.19 °N, 82.37 °W | Change Station
Active Advisory: Flood Warning

Current weather conditions updated 25 minutes ago

Drizzle
Drizzle
54 °F
Feels Like 54 °F
N
13
Wind Variable Wind from NNE
Sunrise 6:55 AM
Sunset 8:01 PM
Moon Waning Gibbous

Today is forecast to be nearly the same temperature as yesterday. Chance of afternoon showers.

Pressure 29.94 in
Visibility 7.0 miles
Clouds Overcast 500 ft
Dew Point 52 °F
Humidity 94%
Rainfall 0.00 in
Snow Depth Not available.
UV 0 out of 16
Pollen 2.60 out of 12
Air Quality Not available.
Flu Activity Sporadic
METAR KVDI 191035Z AUTO 03011KT 7SM DZ OVC005 12/11 A2994 RMK AO2

More Conditions Fewer Conditions

Pressure 29.94 in
Visibility 7.0 miles
Clouds Overcast 500 ft
Dew Point 52 °F
Humidity 94%
Rainfall 0.00 in
Snow Depth Not available.
UV 0 out of 16
Pollen 2.60 out of 12
Air Quality Not available.
Flu Activity Sporadic
METAR KVDI 191035Z AUTO 03011KT 7SM DZ OVC005 12/11 A2994 RMK AO2

More Conditions Fewer Conditions

10-Day Weather Forecast

Almanac

Astronomy

Apr. 19, 2014 Rise Set
Actual Time 6:55 AM EDT 8:01 PM EDT
Civil Twilight 6:30 AM EDT 8:27 PM EDT
Nautical Twilight 6:00 AM EDT 8:57 PM EDT
Astronomical Twilight 5:29 AM EDT 9:28 PM EDT
Moon No Moon Rise 10:21 AM EDT
Length of Visible Light 13h 56m
Length of Day
13h 05m
Tomorrow will be 1m 50s longer.
Waning Gibbous, 81% of the Moon is Illuminated
Today
Waning Gibbous
Apr 22
Last Quarter
Apr 29
New
May 6
First Quarter
May 14
Full

Today's Extremes

State Highs State Lows

Community

  • Bleeding Hearts
    Bleeding Hearts
  • Sunset Silhouettes
    Sunset Silhouettes
  • FL sunset Perico Isle
    FL sunset Perico Isle
  • Cloudy spring view
    Cloudy spring view
  • Old barn
    Old barn

WunderPhotos

Upload Photos

1,702,682 photos uploaded!

WunderBlogs® & News

Nearby

Snow Depth

Station Depth Elevation
No new snow has been reported.

Coastal Water Temperatures

Place Temperature
No Stations Reporting

Earthquake Activity

City Distance Mag. Time & Date
No recent earthquake activity has been reported nearby.
Minimum magnitude displayed is 2.5.

Nearby Weather Stations

Station Location Temp. Dew Point Humidity Wind Precip. Elev Updated Type
South Treutlen Co., Soperton, GA 53.1 °F 53 °F 100% North  at  0.0 mph 0.01 in / hr 236 ft 3:15 AM EDT Rapid Fire
Hope Street, Metter, GA 52.5 °F 50 °F 93% ENE  at  2.3 mph 0.01 in / hr 211 ft 7:00 AM EDT Rapid Fire

Show More Stations Show Fewer Stations

What do you think?

We're not finished. Please let us know what you like, what you don't like, and what you are still missing.